Latest  Newer  Older  Last 2 hours slideshow  Last 24 hours slideshow  Refresh every 5 minutes 
Current image  Latest image  Rain/snow radar  Cloud coverage sat images 

All time is UTC (add 2 hours to UTC in wintertime, 3 hours to UTC in DST for Latvia local time)

2021/10/26 00:50 EVRA 260050Z 18007KT CAVOK 03/02 Q1016 R18/090095 NOSIG
2021/10/26 00:50 EVLA 260050Z AUTO 24008KT 9999 OVC019/// 09/07 Q1015
2021/10/26 00:50 EVVA 260050Z AUTO 24009KT 9999 OVC024 10/07 Q1014
2021/10/26 00:50 EYKA 260050Z 17008KT CAVOK 04/M00 Q1019
2021/10/26 00:50 EYPA 260050Z VRB02KT 9999 FEW021 BKN220 06/04 Q1016
2021/10/26 00:50 EYSA 260050Z AUTO 19007KT 9999 BKN240/// 04/02 Q1017 NOSIG
2021/10/26 00:50 EYVI 260050Z 18009KT CAVOK 02/M01 Q1020 NOSIG
2021/10/25 15:20 EEKA 251520Z 21008KT 170V250 9999 OVC023 10/06 Q1014
2021/10/26 00:50 EEKE 260050Z AUTO 26005KT 220V320 9999NDV OVC022 09/05 Q1013

2021/10/26 00:50 EETN 260050Z 22009KT 9999 OVC025 08/06 Q1011
2021/10/26 00:50 EETU 260050Z AUTO 21009KT 9999 SCT026/// 04/01 Q1014
   RIGA AIRPORT     EVRA               56 55N  023 58E   10   X     T          6 LV
   LIEPAJA INTL     EVLA        26406  56 31N  021 06E    4   X                8 LV
   VENTPILS         EVVA               57 21N  021 33E    6   X                8 LV
   KAUNAS           EYKA               54 54N  023 55E   77   X     T          6 LT
   PALANGA INTL     EYPA               55 55N  021 03E   10   X                6 LT
   SIAULIAI INTL    EYSA               55 54N  023 24E  135   X     T          6 LT
   VILNIUS INTL     EYVI        26730  54 38N  025 17E  197   X     T          6 LT
   KARDLA           EEKA        26116  58 59N  022 50E    4   X                8 EE
   KURESSAARE       EEKE               58 14N  022 31E    4   X                8 EE
   PARNU            EEPU               58 25N  024 28E   14   X                8 EE
   TALLINN          EETN        26038  59 24N  024 49E   40   X     T          8 EE
   TARTU            EETU               58 19N  026 41E   67   X                8 EE